Time;durP1;ratioP1;P1;durP2;ratioP2;P2;SDS_P1;SDS_P2;PMS_P1;PMS_P2;Temp;Humidity;BMP_temperature;BMP_pressure;BME280_temperature;BME280_humidity;BME280_pressure;Samples;Min_cycle;Max_cycle;Signal;HPM_P1;HPM_P2
2022/04/19 00:01:18;;;;;;;2.90;2.70;;;7.00;1.00;;;;;;5098353;28;20221;-84
2022/04/19 00:03:45;;;;;;;3.58;2.85;;;7.30;1.00;;;;;;5096805;28;20234;-83
2022/04/19 00:06:12;;;;;;;3.03;2.83;;;7.10;1.00;;;;;;5095544;28;20211;-83
2022/04/19 00:08:39;;;;;;;3.22;2.92;;;6.90;1.00;;;;;;5088011;28;20485;-83
2022/04/19 00:11:05;;;;;;;3.53;3.15;;;6.90;1.00;;;;;;5087204;28;20229;-84
2022/04/19 00:13:32;;;;;;;3.10;2.78;;;7.00;1.00;;;;;;5088327;28;20284;-84
2022/04/19 00:15:59;;;;;;;2.90;2.70;;;7.00;1.00;;;;;;5089405;28;20677;-84
2022/04/19 00:18:27;;;;;;;3.15;2.95;;;7.00;1.00;;;;;;5083186;28;20211;-84
2022/04/19 00:20:54;;;;;;;3.35;2.55;;;7.00;1.00;;;;;;5083066;28;20616;-84
2022/04/19 00:23:21;;;;;;;2.83;2.63;;;7.00;1.00;;;;;;5087393;28;20201;-84
2022/04/19 00:25:52;;;;;;;3.45;3.10;;;6.90;1.00;;;;;;5084352;28;20251;-84
2022/04/19 00:28:19;;;;;;;3.35;3.03;;;7.00;1.00;;;;;;5094180;28;20185;-84
2022/04/19 00:30:47;;;;;;;2.97;2.78;;;7.00;1.00;;;;;;5089167;28;20236;-83
2022/04/19 00:33:14;;;;;;;5.93;3.20;;;6.90;1.00;;;;;;5095373;28;20234;-84
2022/04/19 00:35:43;;;;;;;3.50;2.90;;;6.90;1.00;;;;;;5095020;28;20206;-83
2022/04/19 00:38:10;;;;;;;3.17;2.97;;;6.90;1.00;;;;;;5083766;28;20248;-83
2022/04/19 00:40:37;;;;;;;3.15;2.85;;;7.00;1.00;;;;;;5082532;28;20215;-84
2022/04/19 00:43:05;;;;;;;3.25;2.45;;;7.00;1.00;;;;;;5081635;28;20215;-84
2022/04/19 00:45:34;;;;;;;3.78;2.50;;;6.90;1.00;;;;;;5081194;28;20229;-84
2022/04/19 00:48:01;;;;;;;4.45;2.40;;;6.80;1.00;;;;;;5081384;28;20204;-84
2022/04/19 00:50:28;;;;;;;2.58;2.40;;;6.80;1.00;;;;;;5081201;28;20229;-84
2022/04/19 00:52:56;;;;;;;3.08;2.78;;;6.80;1.00;;;;;;5081956;28;20208;-84
2022/04/19 00:55:23;;;;;;;3.73;2.80;;;6.70;1.00;;;;;;5081530;28;20199;-84
2022/04/19 00:57:51;;;;;;;4.97;3.10;;;6.70;1.00;;;;;;5085029;28;20459;-84
2022/04/19 01:00:17;;;;;;;4.50;2.70;;;6.60;1.00;;;;;;5097311;28;20219;-83
2022/04/19 01:02:44;;;;;;;2.60;2.40;;;6.60;1.00;;;;;;5099225;28;20184;-83
2022/04/19 01:05:12;;;;;;;3.05;2.85;;;6.60;1.00;;;;;;5098723;28;20465;-83
2022/04/19 01:07:39;;;;;;;3.63;3.33;;;6.60;1.00;;;;;;5085183;28;20198;-84
2022/04/19 01:10:08;;;;;;;3.00;2.80;;;6.50;1.00;;;;;;5081184;28;20220;-84
2022/04/19 01:15:20;;;;;;;3.45;3.00;;;6.50;1.00;;;;;;5080807;28;20222;-84
2022/04/19 01:17:48;;;;;;;5.43;3.25;;;6.40;1.00;;;;;;5080182;28;20204;-85
2022/04/19 01:20:14;;;;;;;3.38;2.60;;;6.40;1.00;;;;;;5097325;22;20235;-83
2022/04/19 01:22:43;;;;;;;3.72;3.33;;;6.30;1.00;;;;;;5091860;28;20185;-83
2022/04/19 01:25:11;;;;;;;4.13;2.97;;;6.30;1.00;;;;;;5088978;28;20228;-85
2022/04/19 01:27:38;;;;;;;3.05;2.85;;;6.20;1.00;;;;;;5084082;28;20202;-84
2022/04/19 01:30:08;;;;;;;4.43;2.55;;;6.20;1.00;;;;;;5084003;28;20220;-85
2022/04/19 01:32:35;;;;;;;2.78;2.58;;;6.20;1.00;;;;;;5084278;28;20198;-84
2022/04/19 01:35:10;;;;;;;3.58;3.10;;;6.10;33.10;;;;;;5084035;28;20204;-84
2022/04/19 01:37:38;;;;;;;4.32;2.75;;;6.20;1.00;;;;;;5088819;28;20273;-83
2022/04/19 01:40:19;;;;;;;2.88;2.70;;;6.20;1.00;;;;;;5096225;28;20223;-84
2022/04/19 01:42:47;;;;;;;2.83;2.63;;;6.10;1.00;;;;;;5092536;28;20182;-83
2022/04/19 01:45:14;;;;;;;4.75;2.63;;;6.10;1.00;;;;;;5086736;28;20260;-82
2022/04/19 01:47:42;;;;;;;3.08;2.78;;;6.00;1.00;;;;;;5083084;28;20212;-84
2022/04/19 01:50:11;;;;;;;7.25;2.55;;;6.00;1.00;;;;;;5083786;28;20282;-83
2022/04/19 01:52:37;;;;;;;3.47;3.17;;;6.10;1.00;;;;;;5083410;28;20208;-83
2022/04/19 01:55:07;;;;;;;3.45;3.22;;;6.10;1.00;;;;;;5083941;28;20330;-84
2022/04/19 01:57:34;;;;;;;3.28;2.97;;;6.10;1.00;;;;;;5090686;28;20206;-84
2022/04/19 02:00:02;;;;;;;3.13;2.83;;;6.00;1.00;;;;;;5091764;28;20279;-83
2022/04/19 02:02:29;;;;;;;3.83;2.60;;;6.00;30.80;;;;;;5095005;28;20221;-83
2022/04/19 02:04:55;;;;;;;3.20;2.60;;;6.10;1.00;;;;;;5091928;28;20231;-83
2022/04/19 02:07:22;;;;;;;3.70;3.08;;;6.10;28.10;;;;;;5093720;28;20192;-83
2022/04/19 02:09:49;;;;;;;4.18;2.97;;;5.60;99.90;;;;;;5093988;28;20204;-83
2022/04/19 02:12:16;;;;;;;2.92;2.70;;;6.10;56.20;;;;;;5091804;28;20210;-84
2022/04/19 02:14:43;;;;;;;3.05;2.75;;;6.10;46.70;;;;;;5086941;28;20207;-84
2022/04/19 02:17:10;;;;;;;5.18;2.97;;;6.10;81.70;;;;;;5083270;28;20217;-84
2022/04/19 02:19:36;;;;;;;3.20;2.90;;;6.40;99.90;;;;;;5084061;28;20240;-85
2022/04/19 02:22:05;;;;;;;3.10;2.80;;;6.20;20.00;;;;;;5084898;28;20215;-84
2022/04/19 02:24:32;;;;;;;3.30;3.05;;;6.10;67.50;;;;;;5087689;28;20217;-84
2022/04/19 02:26:58;;;;;;;4.50;3.30;;;6.10;32.70;;;;;;5084699;28;20309;-84
2022/04/19 02:29:26;;;;;;;4.07;2.80;;;6.10;53.00;;;;;;5087782;28;20204;-83
2022/04/19 02:31:53;;;;;;;2.58;2.13;;;6.10;27.10;;;;;;5088788;28;20224;-82
2022/04/19 02:34:20;;;;;;;2.97;2.75;;;6.10;99.90;;;;;;5085573;28;20207;-84
2022/04/19 02:36:47;;;;;;;3.30;3.00;;;6.10;59.80;;;;;;5087721;28;20261;-83
2022/04/19 02:39:14;;;;;;;3.10;2.80;;;6.10;1.00;;;;;;5091970;28;20207;-83
2022/04/19 02:41:40;;;;;;;2.92;2.70;;;6.20;1.00;;;;;;5095213;28;20212;-84
2022/04/19 02:44:08;;;;;;;3.92;3.00;;;6.20;1.00;;;;;;5096677;28;20192;-83
2022/04/19 02:46:36;;;;;;;3.50;2.90;;;6.20;1.00;;;;;;5091253;28;20239;-82
2022/04/19 02:49:04;;;;;;;4.68;3.10;;;6.20;1.00;;;;;;5086144;28;20204;-82
2022/04/19 02:51:31;;;;;;;7.30;3.00;;;6.10;99.90;;;;;;5083124;28;20231;-83
2022/04/19 02:53:57;;;;;;;3.80;2.92;;;6.10;1.00;;;;;;5086119;28;20263;-83
2022/04/19 02:56:24;;;;;;;5.15;3.38;;;6.00;99.90;;;;;;5087643;28;20237;-84
2022/04/19 02:58:51;;;;;;;3.65;3.38;;;6.00;33.90;;;;;;5093280;28;20202;-84
2022/04/19 03:01:18;;;;;;;3.00;2.80;;;6.00;15.30;;;;;;5092561;28;20258;-84
2022/04/19 03:03:46;;;;;;;3.05;2.85;;;5.90;37.70;;;;;;5089197;28;20287;-83
2022/04/19 03:06:13;;;;;;;2.70;2.50;;;5.80;99.90;;;;;;5097404;28;20219;-82
2022/04/19 03:08:39;;;;;;;3.28;2.80;;;5.90;99.90;;;;;;5097737;28;20202;-83
2022/04/19 03:11:06;;;;;;;4.13;2.40;;;6.10;99.90;;;;;;5097317;28;20472;-83
2022/04/19 03:13:33;;;;;;;3.30;3.00;;;5.80;99.90;;;;;;5098126;28;20203;-82
2022/04/19 03:15:59;;;;;;;4.50;2.95;;;5.80;99.90;;;;;;5095744;28;20443;-84
2022/04/19 03:18:28;;;;;;;3.90;2.92;;;5.80;99.90;;;;;;5097188;28;20245;-82
2022/04/19 03:20:56;;;;;;;3.38;2.85;;;5.80;99.90;;;;;;5093858;28;20231;-84
2022/04/19 03:28:51;;;;;;;3.20;2.92;;;5.80;99.90;;;;;;5085892;28;20185;-84
2022/04/19 03:31:18;;;;;;;2.75;2.55;;;5.80;20.40;;;;;;5091354;28;20223;-83
2022/04/19 03:33:49;;;;;;;3.17;2.72;;;5.80;99.90;;;;;;5099124;28;20222;-82
2022/04/19 03:36:17;;;;;;;5.45;3.42;;;5.80;99.90;;;;;;5098083;28;20191;-85
2022/04/19 03:38:43;;;;;;;3.05;2.85;;;5.60;99.90;;;;;;5094905;28;20289;-82
2022/04/19 03:41:10;;;;;;;3.20;2.80;;;5.80;99.90;;;;;;5090086;28;20224;-82
2022/04/19 03:43:37;;;;;;;6.80;3.22;;;5.80;99.90;;;;;;5087126;28;20237;-84
2022/04/19 03:46:03;;;;;;;3.10;2.80;;;5.60;99.90;;;;;;5098956;28;20230;-82
2022/04/19 03:48:30;;;;;;;3.08;2.63;;;5.50;99.90;;;;;;5099894;28;20175;-83
2022/04/19 03:50:57;;;;;;;5.07;3.22;;;5.50;99.90;;;;;;5092600;28;20273;-85
2022/04/19 03:53:25;;;;;;;5.10;3.17;;;5.50;99.90;;;;;;5087163;28;20638;-83
2022/04/19 03:55:52;;;;;;;3.35;2.65;;;5.50;99.90;;;;;;5086700;28;20251;-83
2022/04/19 03:58:18;;;;;;;3.83;2.75;;;5.50;99.90;;;;;;5086254;28;20623;-84
2022/04/19 04:00:46;;;;;;;5.47;3.72;;;5.50;99.90;;;;;;5085779;28;20217;-83
2022/04/19 04:03:13;;;;;;;4.65;4.15;;;5.50;99.90;;;;;;5086991;28;20676;-84
2022/04/19 04:05:40;;;;;;;5.65;3.30;;;5.50;99.90;;;;;;5093010;28;20222;-83
2022/04/19 04:08:07;;;;;;;3.50;3.20;;;5.40;99.90;;;;;;5083796;28;20236;-83
2022/04/19 04:10:35;;;;;;;3.20;2.90;;;5.40;99.90;;;;;;5085891;28;20222;-83
2022/04/19 04:13:04;;;;;;;3.38;3.08;;;5.40;99.90;;;;;;5083344;28;20206;-84
2022/04/19 04:15:33;;;;;;;3.70;2.67;;;5.40;99.90;;;;;;5083741;28;20222;-83
2022/04/19 04:18:00;;;;;;;6.13;3.13;;;5.20;1.00;;;;;;5084665;28;20202;-82
2022/04/19 04:20:27;;;;;;;3.85;2.90;;;5.30;99.90;;;;;;5086908;28;20234;-84
2022/04/19 04:22:53;;;;;;;3.47;3.17;;;5.30;99.90;;;;;;5094939;28;20294;-83
2022/04/19 04:25:20;;;;;;;5.30;3.25;;;5.30;99.90;;;;;;5086124;28;20278;-84
2022/04/19 04:27:48;;;;;;;2.83;2.63;;;5.30;99.90;;;;;;5083268;28;20230;-83
2022/04/19 04:30:14;;;;;;;4.68;3.65;;;5.30;99.90;;;;;;5082568;28;20226;-83
2022/04/19 04:32:41;;;;;;;3.20;2.95;;;5.30;1.00;;;;;;5082038;28;20627;-84
2022/04/19 04:35:09;;;;;;;4.20;3.10;;;5.20;99.90;;;;;;5084470;28;20655;-83
2022/04/19 04:37:35;;;;;;;5.00;3.97;;;5.20;99.90;;;;;;5085573;28;20517;-83
2022/04/19 04:40:03;;;;;;;4.22;3.72;;;5.20;99.90;;;;;;5085639;28;20223;-84
2022/04/19 04:42:29;;;;;;;3.80;3.47;;;5.30;99.90;;;;;;5084578;28;20203;-83
2022/04/19 04:44:57;;;;;;;3.80;3.50;;;5.40;99.90;;;;;;5092373;28;20198;-83
2022/04/19 04:50:19;;;;;;;4.65;3.72;;;5.30;99.90;;;;;;5025021;28;20212;-84
2022/04/19 04:52:47;;;;;;;4.20;3.30;;;5.20;1.00;;;;;;5069916;28;20202;-85
2022/04/19 04:55:13;;;;;;;5.15;3.20;;;5.30;1.00;;;;;;5087818;28;20206;-84
2022/04/19 04:57:40;;;;;;;4.38;3.45;;;5.10;1.00;;;;;;5091192;28;20203;-83
2022/04/19 05:00:09;;;;;;;4.20;3.30;;;5.30;1.00;;;;;;5089939;28;20223;-85
2022/04/19 05:02:35;;;;;;;7.30;3.40;;;5.30;1.00;;;;;;5086878;28;20270;-84
2022/04/19 05:05:02;;;;;;;4.65;2.90;;;5.30;1.00;;;;;;5090699;28;20198;-84
2022/04/19 05:07:29;;;;;;;4.53;3.40;;;5.40;5.10;;;;;;5090164;28;20241;-84
2022/04/19 05:09:58;;;;;;;5.22;4.13;;;5.40;1.00;;;;;;5086259;28;20293;-84
2022/04/19 05:12:25;;;;;;;6.45;3.50;;;5.40;1.00;;;;;;5085168;28;20263;-84
2022/04/19 05:14:51;;;;;;;7.25;4.45;;;5.50;1.00;;;;;;5093172;28;20264;-86
2022/04/19 05:17:19;;;;;;;5.50;4.00;;;5.50;1.00;;;;;;5090827;28;20205;-85
2022/04/19 05:19:46;;;;;;;5.13;4.07;;;5.90;1.00;;;;;;5090422;28;20244;-82
2022/04/19 05:22:12;;;;;;;4.18;3.60;;;5.60;1.00;;;;;;5085078;28;20194;-84
2022/04/19 05:24:39;;;;;;;4.60;4.10;;;5.80;1.00;;;;;;5086250;28;20229;-83
2022/04/19 05:27:06;;;;;;;7.28;4.30;;;5.60;1.00;;;;;;5085558;28;20220;-83
2022/04/19 05:29:32;;;;;;;8.95;4.18;;;5.90;1.00;;;;;;5086092;28;20207;-84
2022/04/19 05:31:59;;;;;;;13.85;9.73;;;5.70;1.00;;;;;;5086641;28;20211;-84
2022/04/19 05:34:27;;;;;;;5.50;4.72;;;5.70;1.00;;;;;;5095905;28;20203;-83
2022/04/19 05:36:53;;;;;;;6.50;4.22;;;5.80;1.00;;;;;;5097979;28;20202;-81
2022/04/19 05:39:20;;;;;;;5.90;3.90;;;5.80;1.00;;;;;;5097737;28;20233;-82
2022/04/19 05:41:47;;;;;;;5.13;4.13;;;5.70;1.00;;;;;;5093224;28;20222;-83
2022/04/19 05:44:13;;;;;;;4.55;3.65;;;5.60;1.00;;;;;;5089615;28;20206;-83
2022/04/19 05:46:40;;;;;;;6.20;4.60;;;5.60;1.00;;;;;;5091749;28;20293;-83
2022/04/19 05:49:06;;;;;;;8.02;4.85;;;5.70;1.00;;;;;;5093532;28;20206;-82
2022/04/19 05:51:35;;;;;;;8.23;5.20;;;5.80;1.00;;;;;;5091420;28;20222;-83
2022/04/19 05:54:01;;;;;;;3.78;3.47;;;5.80;1.00;;;;;;5091504;28;20190;-82
2022/04/19 05:56:30;;;;;;;5.13;3.83;;;5.80;1.00;;;;;;5097667;28;20186;-83
2022/04/19 05:58:56;;;;;;;6.35;4.15;;;5.90;99.90;;;;;;5097441;28;20198;-82
2022/04/19 06:01:23;;;;;;;7.25;5.20;;;5.90;99.90;;;;;;5088967;28;20219;-83
2022/04/19 06:06:35;;;;;;;7.68;5.15;;;6.10;99.90;;;;;;5081184;28;20628;-85
2022/04/19 06:09:03;;;;;;;5.60;5.00;;;6.00;99.90;;;;;;5082871;28;20205;-83
2022/04/19 06:11:30;;;;;;;4.55;4.15;;;6.10;99.90;;;;;;5084471;28;20220;-84
2022/04/19 06:13:56;;;;;;;4.28;3.88;;;6.10;99.90;;;;;;5082770;28;20230;-84
2022/04/19 06:16:23;;;;;;;6.72;4.70;;;6.30;99.90;;;;;;5080935;28;20230;-84
2022/04/19 06:18:50;;;;;;;6.38;4.80;;;6.30;99.90;;;;;;5083641;28;20596;-85
2022/04/19 06:21:16;;;;;;;10.63;4.00;;;6.50;98.80;;;;;;5085506;28;20729;-82
2022/04/19 06:23:44;;;;;;;5.28;4.75;;;6.50;1.00;;;;;;5087023;28;20207;-83
2022/04/19 06:26:11;;;;;;;7.90;5.93;;;6.50;1.00;;;;;;5094883;28;20219;-83
2022/04/19 06:28:37;;;;;;;6.50;4.05;;;6.50;1.00;;;;;;5099518;28;20187;-83
2022/04/19 06:31:04;;;;;;;6.05;4.57;;;6.40;99.90;;;;;;5100718;28;20227;-83
2022/04/19 06:33:33;;;;;;;6.95;4.35;;;6.50;1.00;;;;;;5091832;28;20251;-84
2022/04/19 06:36:00;;;;;;;9.00;5.13;;;6.70;1.00;;;;;;5089004;28;20200;-84
2022/04/19 06:38:26;;;;;;;8.70;4.55;;;6.80;1.00;;;;;;5086907;28;20214;-83
2022/04/19 06:40:54;;;;;;;5.03;4.30;;;6.80;1.00;;;;;;5086496;28;20231;-83
2022/04/19 06:43:21;;;;;;;6.13;4.57;;;6.80;1.00;;;;;;5086741;28;20215;-83
2022/04/19 06:45:48;;;;;;;6.20;5.13;;;6.80;1.00;;;;;;5086462;28;20540;-83
2022/04/19 06:48:19;;;;;;;7.53;5.07;;;6.90;1.00;;;;;;5090020;28;20258;-84
2022/04/19 06:50:45;;;;;;;6.67;4.47;;;7.00;26.50;;;;;;5088461;28;20223;-83
2022/04/19 06:53:12;;;;;;;11.10;4.20;;;7.10;1.00;;;;;;5086817;28;20810;-82
2022/04/19 06:55:38;;;;;;;7.70;4.67;;;6.40;1.00;;;;;;5096753;28;20203;-83
2022/04/19 06:58:06;;;;;;;6.20;5.37;;;7.40;1.00;;;;;;5095350;28;20438;-83
2022/04/19 07:00:33;;;;;;;7.83;4.90;;;7.50;1.00;;;;;;5096452;28;20463;-84
2022/04/19 07:03:00;;;;;;;8.30;5.27;;;9.50;1.00;;;;;;5096901;28;20442;-83
2022/04/19 07:05:26;;;;;;;8.15;5.47;;;7.50;1.00;;;;;;5092113;28;20471;-83
2022/04/19 07:07:53;;;;;;;5.60;4.73;;;7.60;1.00;;;;;;5087903;28;20256;-83
2022/04/19 07:10:19;;;;;;;7.40;4.60;;;7.60;1.00;;;;;;5087175;28;20471;-84
2022/04/19 07:12:47;;;;;;;5.87;5.33;;;7.70;1.00;;;;;;5087597;28;20461;-83
2022/04/19 07:15:15;;;;;;;5.13;4.67;;;7.80;1.00;;;;;;5096975;28;20461;-83
2022/04/19 07:17:43;;;;;;;5.57;4.67;;;7.90;1.00;;;;;;5098602;28;20436;-82
2022/04/19 07:28:24;;;;;;;10.43;4.40;;;8.30;99.90;;;;;;5070776;28;20490;-84
2022/04/19 07:30:52;;;;;;;8.23;4.57;;;8.30;99.90;;;;;;5070564;28;20465;-83
2022/04/19 07:33:19;;;;;;;7.70;4.50;;;8.40;99.90;;;;;;5067464;28;20453;-84
2022/04/19 07:35:45;;;;;;;7.80;5.03;;;8.50;99.90;;;;;;5066877;28;20915;-84
2022/04/19 07:38:12;;;;;;;7.43;4.90;;;8.60;99.90;;;;;;5067124;28;20545;-84
2022/04/19 07:40:39;;;;;;;7.43;5.23;;;8.80;99.90;;;;;;5065020;28;20502;-84
2022/04/19 07:43:06;;;;;;;5.17;3.53;;;9.00;99.90;;;;;;5066552;28;20420;-83
2022/04/19 07:45:33;;;;;;;5.03;4.53;;;8.90;99.90;;;;;;5065869;28;20441;-84
2022/04/19 07:48:03;;;;;;;10.60;5.00;;;8.30;99.90;;;;;;5065204;28;20480;-83
2022/04/19 07:50:29;;;;;;;8.43;3.83;;;9.10;99.90;;;;;;5065853;28;20469;-84
2022/04/19 07:52:56;;;;;;;4.03;3.63;;;9.20;99.90;;;;;;5066919;28;20454;-85
2022/04/19 07:55:23;;;;;;;9.33;5.00;;;9.20;99.90;;;;;;5066555;28;20516;-84
2022/04/19 07:57:50;;;;;;;5.43;3.17;;;9.30;99.90;;;;;;5065828;28;20417;-84
2022/04/19 08:00:18;;;;;;;5.03;3.40;;;9.40;99.90;;;;;;5065129;28;20442;-84
2022/04/19 08:02:44;;;;;;;3.97;3.57;;;9.40;99.90;;;;;;5065422;28;20479;-84
2022/04/19 08:05:12;;;;;;;4.60;3.50;;;9.30;99.90;;;;;;5065060;28;20446;-85
2022/04/19 08:07:39;;;;;;;10.53;3.53;;;9.30;99.90;;;;;;5065237;28;20481;-85
2022/04/19 08:10:07;;;;;;;12.87;4.90;;;9.60;1.00;;;;;;5064316;28;20441;-83
2022/04/19 08:12:33;;;;;;;19.77;5.67;;;9.40;99.90;;;;;;5064349;28;20442;-84
2022/04/19 08:15:00;;;;;;;5.40;3.63;;;9.60;99.90;;;;;;5064576;28;20452;-85
2022/04/19 08:17:27;;;;;;;5.27;4.40;;;9.80;99.90;;;;;;5071909;28;20928;-84
2022/04/19 08:19:56;;;;;;;3.77;2.70;;;9.90;99.90;;;;;;5071263;28;20424;-83
2022/04/19 08:22:24;;;;;;;5.83;3.50;;;9.90;99.90;;;;;;5072573;28;20432;-84
2022/04/19 08:24:51;;;;;;;3.37;3.07;;;10.00;99.90;;;;;;5070574;28;20477;-84
2022/04/19 08:27:18;;;;;;;4.13;3.13;;;10.10;99.90;;;;;;5071957;28;20477;-83
2022/04/19 08:29:44;;;;;;;3.23;3.03;;;10.20;99.90;;;;;;5080311;28;20433;-82
2022/04/19 08:32:11;;;;;;;5.40;2.97;;;10.10;99.90;;;;;;5072243;28;20474;-84
2022/04/19 08:34:38;;;;;;;7.50;2.80;;;10.10;99.90;;;;;;5070611;28;20474;-84
2022/04/19 08:37:05;;;;;;;6.47;3.40;;;10.10;99.90;;;;;;5071092;28;20476;-84
2022/04/19 08:39:33;;;;;;;3.37;2.73;;;10.10;99.90;;;;;;5070854;28;20434;-85
2022/04/19 08:42:00;;;;;;;4.30;3.30;;;10.30;99.90;;;;;;5074558;28;20472;-85
2022/04/19 08:44:27;;;;;;;3.13;2.83;;;10.20;99.90;;;;;;5069133;28;20921;-84
2022/04/19 08:46:55;;;;;;;4.40;3.20;;;10.40;99.90;;;;;;5075326;28;20475;-83
2022/04/19 08:49:22;;;;;;;3.50;3.20;;;10.60;99.90;;;;;;5079343;28;20488;-84
2022/04/19 08:51:49;;;;;;;3.73;3.40;;;10.50;99.90;;;;;;5074799;28;20485;-85
2022/04/19 08:59:45;;;;;;;5.90;2.40;;;10.80;99.90;;;;;;5079034;28;20409;-83
2022/04/19 09:02:21;;;;;;;3.73;2.57;;;10.70;99.90;;;;;;5077982;28;20420;-84
2022/04/19 09:04:51;;;;;;;2.90;2.70;;;10.70;99.90;;;;;;5078314;28;20577;-84
2022/04/19 09:07:18;;;;;;;2.93;2.73;;;10.70;99.90;;;;;;5078658;28;20481;-84
2022/04/19 09:09:59;;;;;;;8.70;4.07;;;10.80;99.90;;;;;;5078118;28;20453;-84
2022/04/19 09:12:28;;;;;;;5.20;3.17;;;11.00;99.90;;;;;;5075890;28;20436;-85
2022/04/19 09:14:56;;;;;;;3.73;3.43;;;11.20;99.90;;;;;;5068252;28;20971;-84
2022/04/19 09:17:31;;;;;;;5.40;3.27;;;11.20;99.90;;;;;;5066227;28;20442;-85
2022/04/19 09:20:12;;;;;;;3.60;3.27;;;11.10;1.00;;;;;;5075432;28;20454;-84
2022/04/19 09:22:39;;;;;;;3.20;2.87;;;11.20;99.90;;;;;;5077978;28;20381;-83
2022/04/19 09:25:19;;;;;;;2.63;2.43;;;11.10;99.90;;;;;;5078189;28;20441;-84
2022/04/19 09:27:49;;;;;;;10.17;4.37;;;11.30;99.90;;;;;;5077402;28;20643;-83
2022/04/19 09:30:18;;;;;;;3.40;2.40;;;11.30;99.90;;;;;;5078507;28;20477;-84
2022/04/19 09:33:00;;;;;;;4.70;2.47;;;11.40;99.90;;;;;;5077994;28;20417;-84
2022/04/19 09:35:31;;;;;;;5.57;2.40;;;11.30;99.90;;;;;;5078345;28;20414;-83
2022/04/19 09:37:58;;;;;;;2.27;2.13;;;11.30;99.90;;;;;;5078490;28;20456;-83
2022/04/19 09:40:32;;;;;;;2.77;1.83;;;11.50;99.90;;;;;;5077622;28;20458;-83
2022/04/19 09:43:14;;;;;;;4.00;2.67;;;11.50;99.90;;;;;;5072224;28;20419;-85
2022/04/19 09:45:54;;;;;;;3.43;2.30;;;11.60;99.90;;;;;;5072450;28;20450;-84
2022/04/19 09:48:22;;;;;;;3.13;2.23;;;11.70;99.90;;;;;;5071962;28;20472;-84
2022/04/19 09:50:58;;;;;;;2.77;2.20;;;11.70;99.90;;;;;;5070349;28;20859;-84
2022/04/19 09:53:26;;;;;;;4.07;2.07;;;11.70;99.90;;;;;;5067613;28;20429;-84
2022/04/19 09:55:54;;;;;;;4.13;2.17;;;11.80;1.00;;;;;;5064793;28;20740;-84
2022/04/19 09:58:23;;;;;;;3.47;2.10;;;11.80;99.90;;;;;;5063651;28;20449;-85
2022/04/19 10:00:51;;;;;;;3.23;2.30;;;11.90;99.90;;;;;;5065988;28;20470;-85
2022/04/19 10:08:53;;;;;;;9.43;2.40;;;12.20;99.90;;;;;;5051306;28;20503;-84
2022/04/19 10:11:20;;;;;;;2.00;1.90;;;12.40;99.90;;;;;;5076726;28;20458;-84
2022/04/19 10:13:48;;;;;;;1.80;1.70;;;12.30;1.00;;;;;;5078132;28;20414;-83
2022/04/19 10:16:15;;;;;;;2.70;2.10;;;12.50;99.90;;;;;;5074340;28;20446;-84
2022/04/19 10:18:44;;;;;;;2.03;1.93;;;12.30;99.90;;;;;;5062227;28;20442;-86
2022/04/19 10:21:15;;;;;;;3.17;2.40;;;12.00;99.90;;;;;;5061057;28;20489;-84
2022/04/19 10:23:43;;;;;;;2.40;2.20;;;11.70;99.90;;;;;;5061005;28;20473;-85
2022/04/19 10:26:15;;;;;;;3.53;2.10;;;11.70;99.90;;;;;;5062514;28;20446;-84
2022/04/19 10:28:45;;;;;;;3.30;2.27;;;;;;;;;;5062791;28;20535;-85
2022/04/19 10:31:14;;;;;;;3.10;2.83;;;12.10;99.90;;;;;;5066256;28;20496;-85
2022/04/19 10:33:45;;;;;;;2.90;2.60;;;12.10;1.00;;;;;;5066659;28;20433;-84
2022/04/19 10:36:20;;;;;;;3.27;2.20;;;12.20;99.90;;;;;;5063906;28;20488;-85
2022/04/19 10:39:08;;;;;;;2.57;2.37;;;12.50;99.90;;;;;;5062938;28;20487;-86
2022/04/19 10:41:56;;;;;;;2.57;2.30;;;12.50;99.90;;;;;;5061594;28;20465;-85
2022/04/19 10:44:26;;;;;;;4.50;2.60;;;12.80;99.90;;;;;;5064178;28;20430;-84
2022/04/19 10:47:15;;;;;;;2.20;2.10;;;13.00;99.90;;;;;;5062389;28;20445;-86
2022/04/19 10:50:02;;;;;;;4.80;2.00;;;12.80;99.90;;;;;;5063593;28;20465;-86
2022/04/19 10:52:48;;;;;;;2.00;1.90;;;12.90;99.90;;;;;;5067419;28;20491;-85
2022/04/19 10:55:23;;;;;;;2.00;1.90;;;13.10;99.90;;;;;;5067164;28;20441;-85
2022/04/19 11:00:38;;;;;;;3.93;2.00;;;13.40;99.90;;;;;;5064380;28;20424;-85
2022/04/19 11:03:10;;;;;;;2.63;2.20;;;13.40;1.00;;;;;;5064524;28;20515;-83
2022/04/19 11:05:42;;;;;;;3.27;2.00;;;13.60;1.00;;;;;;5062014;28;20460;-85
2022/04/19 11:08:32;;;;;;;2.37;2.27;;;13.90;99.90;;;;;;5062376;28;20488;-86
2022/04/19 11:11:23;;;;;;;5.37;4.20;;;13.40;99.90;;;;;;5067673;28;20493;-83
2022/04/19 11:14:17;;;;;;;3.67;2.10;;;13.10;99.90;;;;;;5074974;28;20520;-85
2022/04/19 11:16:43;;;;;;;2.30;2.10;;;13.30;99.90;;;;;;5080244;28;20452;-85
2022/04/19 11:19:17;;;;;;;2.87;2.40;;;13.30;99.90;;;;;;5080423;28;20498;-84
2022/04/19 11:21:56;;;;;;;3.37;2.23;;;13.00;99.90;;;;;;5081488;28;20476;-83
2022/04/19 11:25:01;;;;;;;2.90;2.70;;;13.00;99.90;;;;;;5081434;28;20401;-83
2022/04/19 11:28:08;;;;;;;3.00;2.70;;;13.10;99.90;;;;;;5081722;28;20483;-82
2022/04/19 11:30:35;;;;;;;2.50;2.30;;;13.20;1.00;;;;;;5081566;28;20465;-83
2022/04/19 11:33:04;;;;;;;4.47;2.70;;;13.00;99.90;;;;;;5081312;28;20452;-82
2022/04/19 11:35:33;;;;;;;4.13;2.37;;;13.20;1.00;;;;;;5081396;28;20422;-82
2022/04/19 11:38:05;;;;;;;2.60;2.40;;;13.30;1.00;;;;;;5081510;28;20429;-81
2022/04/19 11:48:50;;;;;;;5.33;2.43;;;13.20;99.90;;;;;;5078889;28;20469;-85
2022/04/19 11:51:20;;;;;;;3.10;2.43;;;13.20;99.90;;;;;;5079664;28;20471;-84
2022/04/19 11:53:46;;;;;;;2.10;2.00;;;13.30;99.90;;;;;;5079743;28;20473;-84
2022/04/19 11:56:13;;;;;;;2.70;2.20;;;13.30;99.90;;;;;;5079907;28;20450;-84
2022/04/19 11:58:43;;;;;;;2.50;2.10;;;13.30;99.90;;;;;;5079427;28;20468;-85
2022/04/19 12:01:10;;;;;;;4.27;2.33;;;13.20;99.90;;;;;;5077394;28;20462;-85
2022/04/19 12:03:38;;;;;;;3.60;2.23;;;13.10;99.90;;;;;;5078841;28;20446;-85
2022/04/19 12:06:08;;;;;;;4.50;2.20;;;13.00;99.90;;;;;;5079647;28;20556;-85
2022/04/19 12:08:37;;;;;;;4.60;2.90;;;13.00;99.90;;;;;;5079511;28;20457;-85
2022/04/19 12:11:05;;;;;;;2.87;2.27;;;12.90;99.90;;;;;;5079759;28;20453;-84
2022/04/19 12:13:32;;;;;;;3.83;2.63;;;13.00;99.90;;;;;;5076055;28;20450;-85
2022/04/19 12:16:00;;;;;;;2.80;1.93;;;13.10;99.90;;;;;;5079774;28;20465;-84
2022/04/19 12:18:31;;;;;;;6.27;2.47;;;12.90;99.90;;;;;;5079798;28;20441;-83
2022/04/19 12:20:58;;;;;;;4.93;2.63;;;13.10;99.90;;;;;;5079313;28;20530;-86
2022/04/19 12:23:25;;;;;;;6.30;2.30;;;12.90;99.90;;;;;;5075075;28;20446;-84
2022/04/19 12:26:04;;;;;;;3.27;2.60;;;12.90;99.90;;;;;;5078789;28;20446;-84
2022/04/19 12:28:40;;;;;;;2.17;2.00;;;12.90;99.90;;;;;;5077986;28;20472;-85
2022/04/19 12:31:07;;;;;;;2.40;2.20;;;13.10;99.90;;;;;;5069466;28;20472;-85
2022/04/19 12:33:35;;;;;;;1.90;1.70;;;13.40;99.90;;;;;;5069623;28;20813;-86
2022/04/19 12:36:01;;;;;;;1.70;1.60;;;13.60;99.90;;;;;;5070160;28;20461;-85
2022/04/19 12:38:32;;;;;;;4.30;2.30;;;13.40;99.90;;;;;;5068110;28;20445;-85
2022/04/19 12:41:00;;;;;;;2.30;2.10;;;13.30;99.90;;;;;;5068577;28;20473;-85
2022/04/19 12:43:44;;;;;;;3.23;2.10;;;13.20;99.90;;;;;;5066946;28;20454;-85
2022/04/19 12:46:13;;;;;;;5.23;2.67;;;13.70;99.90;;;;;;5066536;28;20447;-85
2022/04/19 12:48:40;;;;;;;3.70;1.63;;;13.70;99.90;;;;;;5075881;28;20562;-86
2022/04/19 12:51:06;;;;;;;2.10;1.93;;;13.40;99.90;;;;;;5076962;28;20493;-86
2022/04/19 12:53:35;;;;;;;2.13;1.83;;;13.30;99.90;;;;;;5071446;28;20446;-84
2022/04/19 12:56:41;;;;;;;2.10;1.77;;;13.60;99.90;;;;;;5065036;28;20481;-85
2022/04/19 12:59:07;;;;;;;3.40;2.00;;;13.50;99.90;;;;;;5063582;28;20466;-84
2022/04/19 13:01:34;;;;;;;2.10;1.93;;;14.10;99.90;;;;;;5064280;28;20971;-85
2022/04/19 13:04:01;;;;;;;3.60;2.67;;;14.80;99.90;;;;;;5067720;28;20445;-86
2022/04/19 13:14:42;;;;;;;3.00;1.93;;;13.80;99.90;;;;;;5077569;28;20414;-85
2022/04/19 13:17:09;;;;;;;2.80;2.50;;;13.60;99.90;;;;;;5078356;28;20550;-85
2022/04/19 13:19:35;;;;;;;2.17;1.97;;;13.90;99.90;;;;;;5077192;28;20453;-85
2022/04/19 13:22:03;;;;;;;2.30;1.90;;;14.20;99.90;;;;;;5103753;22;20498;-83
2022/04/19 13:24:29;;;;;;;4.63;2.10;;;14.10;99.90;;;;;;5083770;28;20444;-84
2022/04/19 13:26:59;;;;;;;2.90;2.17;;;13.90;99.90;;;;;;5085360;28;20448;-85
2022/04/19 13:29:25;;;;;;;2.17;1.97;;;13.60;99.90;;;;;;5085637;28;20843;-84
2022/04/19 13:31:52;;;;;;;2.33;2.13;;;13.60;99.90;;;;;;5085576;28;20460;-84
2022/04/19 13:34:19;;;;;;;2.27;2.17;;;13.80;99.90;;;;;;5084181;28;20444;-82
2022/04/19 13:36:46;;;;;;;3.20;1.90;;;13.90;99.90;;;;;;5083675;28;20453;-82
2022/04/19 13:39:13;;;;;;;2.00;1.90;;;;;;;;;;5083316;28;20445;-84
2022/04/19 13:41:42;;;;;;;1.83;1.73;;;14.20;99.90;;;;;;5083424;28;20470;-82
2022/04/19 13:44:11;;;;;;;2.20;1.87;;;13.90;99.90;;;;;;5085995;28;20470;-83
2022/04/19 13:46:38;;;;;;;1.93;1.83;;;13.80;99.90;;;;;;5094980;28;20434;-83
2022/04/19 13:49:05;;;;;;;1.60;1.50;;;13.80;99.90;;;;;;5093857;28;20510;-84
2022/04/19 13:51:32;;;;;;;2.07;1.90;;;13.70;99.90;;;;;;5087607;28;20469;-82
2022/04/19 13:53:59;;;;;;;5.20;2.20;;;13.60;99.90;;;;;;5085027;28;20455;-85
2022/04/19 13:56:26;;;;;;;1.73;1.60;;;13.50;99.90;;;;;;5087200;28;20516;-86
2022/04/19 13:58:53;;;;;;;4.13;2.30;;;13.30;99.90;;;;;;5089350;28;20450;-86